createdAt,value
2023-04-22T00:03:01.781Z,5.10
2023-04-22T00:09:04.864Z,6.00
2023-04-22T00:17:57.095Z,5.80
2023-04-22T00:20:51.656Z,6.32
2023-04-22T00:23:37.972Z,6.22
2023-04-22T00:26:30.537Z,5.97
2023-04-22T00:29:23.380Z,5.85
2023-04-22T00:32:46.388Z,4.45
2023-04-22T00:35:39.307Z,4.40
2023-04-22T00:38:57.694Z,4.90
2023-04-22T00:41:50.567Z,5.80
2023-04-22T00:44:53.579Z,5.25
2023-04-22T00:47:40.431Z,5.18
2023-04-22T00:53:43.522Z,5.07
2023-04-22T00:59:52.755Z,4.82
2023-04-22T01:06:01.713Z,5.00
2023-04-22T01:12:12.086Z,5.30
2023-04-22T01:15:05.784Z,4.78
2023-04-22T01:17:54.587Z,4.53
2023-04-22T01:20:47.429Z,4.65
2023-04-22T01:23:41.453Z,4.80
2023-04-22T01:26:34.386Z,5.20
2023-04-22T01:29:27.570Z,5.40
2023-04-22T01:32:21.122Z,5.72
2023-04-22T01:38:51.071Z,5.10
2023-04-22T01:41:58.547Z,5.00
2023-04-22T01:44:50.514Z,5.65
2023-04-22T01:51:31.641Z,6.05
2023-04-22T01:54:38.400Z,5.83
2023-04-22T01:57:32.669Z,5.30
2023-04-22T02:04:12.401Z,5.30
2023-04-22T02:07:20.631Z,6.30
2023-04-22T02:10:13.100Z,5.63
2023-04-22T02:16:27.955Z,5.57
2023-04-22T02:22:45.657Z,6.00
2023-04-22T02:28:47.223Z,7.40
2023-04-22T02:34:58.062Z,5.85
2023-04-22T02:41:06.721Z,7.05
2023-04-22T02:47:04.845Z,6.65
2023-04-22T02:49:58.827Z,7.13
2023-04-22T02:52:58.989Z,6.78
2023-04-22T02:55:52.317Z,6.40
2023-04-22T02:58:45.416Z,6.22
2023-04-22T03:01:38.197Z,6.68
2023-04-22T03:04:35.696Z,6.35
2023-04-22T03:07:29.484Z,6.47
2023-04-22T03:10:59.622Z,6.63
2023-04-22T03:13:52.438Z,5.20
2023-04-22T03:17:22.702Z,4.65
2023-04-22T03:20:16.554Z,4.35
2023-04-22T03:23:24.702Z,4.57
2023-04-22T03:26:17.745Z,3.60
2023-04-22T03:32:56.883Z,3.25
2023-04-22T03:36:09.303Z,3.88
2023-04-22T03:39:02.480Z,3.53
2023-04-22T03:45:19.177Z,3.35
2023-04-22T03:51:55.880Z,4.30
2023-04-22T03:55:07.919Z,3.80
2023-04-22T03:57:57.595Z,4.13
2023-04-22T04:04:38.787Z,4.78
2023-04-22T04:07:44.597Z,3.33
2023-04-22T04:10:38.594Z,3.35
2023-04-22T04:16:52.677Z,3.15
2023-04-22T04:23:38.854Z,3.40
2023-04-22T04:26:48.871Z,3.67
2023-04-22T04:29:46.044Z,2.60
2023-04-22T04:35:54.206Z,4.10
2023-04-22T04:42:16.674Z,3.28
2023-04-22T04:48:38.455Z,3.38
2023-04-22T04:54:55.367Z,3.80
2023-04-22T05:00:54.555Z,3.40
2023-04-22T05:06:59.703Z,3.72
2023-04-22T05:13:09.723Z,4.53
2023-04-22T05:19:11.050Z,4.85
2023-04-22T05:22:04.218Z,4.65
2023-04-22T05:25:07.465Z,5.22
2023-04-22T05:28:00.219Z,4.70
2023-04-22T05:30:59.242Z,5.07
2023-04-22T05:33:54.012Z,4.45
2023-04-22T05:36:48.852Z,4.90
2023-04-22T05:39:41.660Z,2.85
2023-04-22T05:42:51.723Z,3.35
2023-04-22T05:45:43.675Z,2.88
2023-04-22T05:52:25.720Z,2.45
2023-04-22T05:55:52.538Z,2.40
2023-04-22T05:58:46.011Z,2.92
2023-04-22T06:02:08.341Z,2.55
2023-04-22T06:05:01.953Z,2.30
2023-04-22T06:11:24.743Z,2.42
2023-04-22T06:14:34.798Z,2.65
2023-04-22T06:17:24.516Z,2.22
2023-04-22T06:23:39.590Z,2.95
2023-04-22T06:29:41.156Z,3.55
2023-04-22T06:35:46.939Z,3.72
2023-04-22T06:41:55.848Z,3.33
2023-04-22T06:48:27.241Z,3.28
2023-04-22T06:54:54.770Z,3.70
2023-04-22T07:07:14.188Z,2.65
2023-04-22T07:13:15.730Z,1.75
2023-04-22T07:20:08.369Z,1.70
2023-04-22T07:26:19.114Z,2.22
2023-04-22T07:32:27.758Z,1.48
2023-04-22T07:35:20.536Z,1.52
2023-04-22T07:38:14.511Z,1.77
2023-04-22T07:41:07.883Z,1.30
2023-04-22T07:44:02.977Z,1.63
2023-04-22T07:46:55.428Z,1.50
2023-04-22T07:49:48.252Z,1.50
2023-04-22T07:52:40.223Z,1.70
2023-04-22T07:59:03.692Z,1.40
2023-04-22T08:02:33.871Z,1.70
2023-04-22T08:05:26.186Z,1.42
2023-04-22T08:08:55.661Z,1.42
2023-04-22T08:11:48.397Z,1.30
2023-04-22T08:14:58.071Z,1.23
2023-04-22T08:17:50.071Z,1.45
2023-04-22T08:24:28.492Z,1.33
2023-04-22T08:27:38.934Z,1.48
2023-04-22T08:30:28.289Z,1.33
2023-04-22T08:36:27.696Z,1.13
2023-04-22T08:42:32.800Z,1.85
2023-04-22T08:48:38.100Z,2.10
2023-04-22T08:54:43.786Z,1.75
2023-04-22T08:57:36.964Z,1.52
2023-04-22T09:00:36.063Z,1.60
2023-04-22T09:03:28.574Z,1.88
2023-04-22T09:06:22.068Z,1.83
2023-04-22T09:09:16.690Z,1.38
2023-04-22T09:12:09.700Z,1.70
2023-04-22T09:15:03.991Z,1.70
2023-04-22T09:18:33.668Z,1.70
2023-04-22T09:21:27.776Z,1.63
2023-04-22T09:27:51.817Z,1.92
2023-04-22T09:31:21.737Z,1.77
2023-04-22T09:34:14.553Z,1.73
2023-04-22T09:37:24.063Z,1.90
2023-04-22T09:40:16.293Z,1.30
2023-04-22T09:46:32.111Z,1.70
2023-04-22T09:53:11.747Z,1.63
2023-04-22T09:56:05.333Z,1.70
2023-04-22T10:02:13.269Z,1.58
2023-04-22T10:05:07.059Z,1.70
2023-04-22T10:07:59.641Z,1.58
2023-04-22T10:10:52.965Z,1.80
2023-04-22T10:13:45.290Z,1.58
2023-04-22T10:20:24.901Z,1.58
2023-04-22T10:23:32.720Z,1.63
2023-04-22T10:26:40.384Z,1.42
2023-04-22T10:30:10.667Z,1.33
2023-04-22T10:33:36.472Z,1.60
2023-04-22T10:36:33.918Z,1.85
2023-04-22T10:39:27.329Z,1.60
2023-04-22T10:42:21.762Z,1.65
2023-04-22T10:45:15.652Z,1.55
2023-04-22T10:48:08.329Z,1.60
2023-04-22T10:51:01.598Z,1.33
2023-04-22T10:53:55.838Z,1.40
2023-04-22T10:57:01.767Z,1.30
2023-04-22T10:59:56.380Z,1.60
2023-04-22T11:05:46.683Z,1.65
2023-04-22T11:12:35.555Z,2.20
2023-04-22T11:15:30.157Z,1.33
2023-04-22T11:21:32.488Z,1.42
2023-04-22T11:24:25.674Z,1.67
2023-04-22T11:27:12.984Z,1.40
2023-04-22T11:30:02.132Z,1.40
2023-04-22T11:32:56.768Z,1.65
2023-04-22T11:35:51.430Z,1.52
2023-04-22T11:38:37.571Z,1.20
2023-04-22T11:41:25.931Z,1.45
2023-04-22T11:44:14.842Z,1.30
2023-04-22T11:47:01.975Z,1.42
2023-04-22T11:49:56.920Z,1.50
2023-04-22T11:52:52.259Z,1.30
2023-04-22T11:58:27.940Z,1.70
2023-04-22T12:01:15.258Z,1.38
2023-04-22T12:04:01.857Z,1.10
2023-04-22T12:06:48.179Z,1.38
2023-04-22T12:09:34.727Z,1.30
2023-04-22T12:15:18.748Z,1.45
2023-04-22T12:18:07.126Z,1.45
2023-04-22T12:20:53.009Z,1.27
2023-04-22T12:23:43.326Z,1.50
2023-04-22T12:26:29.171Z,1.40
2023-04-22T12:29:15.356Z,1.63
2023-04-22T12:32:01.571Z,1.33
2023-04-22T12:34:49.622Z,1.45
2023-04-22T12:37:35.900Z,1.50
2023-04-22T12:40:21.869Z,1.55
2023-04-22T12:43:08.336Z,1.63
2023-04-22T12:45:54.190Z,1.30
2023-04-22T12:49:10.730Z,1.52
2023-04-22T12:51:58.320Z,1.65
2023-04-22T12:57:59.432Z,1.85
2023-04-22T13:00:45.542Z,1.85
2023-04-22T13:03:31.866Z,1.35
2023-04-22T13:06:17.998Z,1.80
2023-04-22T13:09:06.068Z,1.50
2023-04-22T13:11:52.294Z,1.20
2023-04-22T13:17:46.602Z,1.90
2023-04-22T13:23:49.820Z,1.50
2023-04-22T13:29:50.187Z,2.05
2023-04-22T13:32:36.246Z,1.70
2023-04-22T13:35:22.334Z,1.42
2023-04-22T13:38:08.312Z,1.88
2023-04-22T13:40:54.304Z,1.20
2023-04-22T13:43:40.493Z,1.20
2023-04-22T13:46:28.038Z,1.27
2023-04-22T13:49:14.330Z,1.75
2023-04-22T13:52:00.531Z,1.52
2023-04-22T13:54:46.532Z,1.55
2023-04-22T13:57:32.339Z,1.65
2023-04-22T14:00:43.602Z,1.40
2023-04-22T14:03:31.212Z,1.40
2023-04-22T14:09:36.486Z,1.33
2023-04-22T14:15:39.594Z,1.27
2023-04-22T14:18:25.790Z,1.58
2023-04-22T14:21:13.593Z,1.58
2023-04-22T14:23:59.567Z,1.77
2023-04-22T14:26:45.699Z,1.83
2023-04-22T14:29:31.828Z,1.33
2023-04-22T14:32:18.729Z,1.40
2023-04-22T14:38:11.672Z,1.33
2023-04-22T14:40:57.752Z,1.73
2023-04-22T14:43:43.470Z,1.42
2023-04-22T14:46:30.405Z,1.50
2023-04-22T14:49:41.861Z,1.90
2023-04-22T14:52:27.937Z,2.05
2023-04-22T14:55:22.504Z,1.50
2023-04-22T14:58:09.155Z,1.73
2023-04-22T15:00:55.294Z,1.58
2023-04-22T15:03:41.471Z,1.42
2023-04-22T15:09:25.276Z,1.80
2023-04-22T15:12:12.590Z,1.10
2023-04-22T15:14:58.534Z,1.30
2023-04-22T15:17:45.393Z,1.70
2023-04-22T15:20:31.229Z,1.45
2023-04-22T15:23:17.368Z,1.70
2023-04-22T15:26:03.340Z,1.73
2023-04-22T15:32:07.510Z,1.92
2023-04-22T15:38:10.331Z,1.65
2023-04-22T15:40:56.296Z,1.75
2023-04-22T15:43:42.441Z,1.50
2023-04-22T15:46:36.174Z,1.20
2023-04-22T15:49:24.816Z,1.50
2023-04-22T15:55:20.626Z,1.90
2023-04-22T15:58:06.455Z,1.80
2023-04-22T16:00:52.564Z,1.70
2023-04-22T16:06:50.263Z,1.75
2023-04-22T16:12:52.903Z,2.10
2023-04-22T16:15:39.216Z,1.98
2023-04-22T16:18:26.471Z,1.63
2023-04-22T16:21:12.682Z,1.85
2023-04-22T16:24:00.737Z,1.92
2023-04-22T16:26:47.145Z,2.17
2023-04-22T16:32:49.980Z,1.60
2023-04-22T16:35:36.534Z,1.88
2023-04-22T16:38:22.443Z,2.22
2023-04-22T16:41:11.486Z,2.50
2023-04-22T16:43:57.974Z,2.67
2023-04-22T16:46:43.982Z,2.53
2023-04-22T16:52:41.336Z,2.25
2023-04-22T16:55:27.601Z,2.45
2023-04-22T16:58:14.933Z,3.00
2023-04-22T17:01:00.850Z,2.92
2023-04-22T17:03:47.315Z,3.47
2023-04-22T17:06:33.508Z,3.53
2023-04-22T17:09:19.743Z,4.28
2023-04-22T17:12:06.058Z,4.45
2023-04-22T17:14:53.478Z,5.13
2023-04-22T17:17:39.534Z,4.70
2023-04-22T17:20:25.724Z,4.53
2023-04-22T17:23:11.724Z,6.03
2023-04-22T17:26:20.679Z,5.10
2023-04-22T17:29:07.285Z,4.55
2023-04-22T17:35:09.084Z,4.68
2023-04-22T17:43:59.193Z,5.28
2023-04-22T17:46:45.756Z,5.53
2023-04-22T17:49:32.120Z,4.05
2023-04-22T17:52:19.621Z,4.40
2023-04-22T17:55:06.451Z,4.72
2023-04-22T17:57:52.342Z,3.80
2023-04-22T18:00:38.725Z,4.03
2023-04-22T18:03:25.013Z,4.90
2023-04-22T18:06:11.260Z,4.63
2023-04-22T18:08:58.563Z,5.10
2023-04-22T18:11:44.739Z,5.07
2023-04-22T18:14:30.790Z,4.57
2023-04-22T18:17:19.950Z,5.93
2023-04-22T18:20:17.573Z,4.22
2023-04-22T18:23:04.538Z,4.82
2023-04-22T18:25:53.796Z,4.82
2023-04-22T18:28:40.995Z,5.30
2023-04-22T18:31:27.273Z,5.18
2023-04-22T18:34:15.499Z,4.88
2023-04-22T18:37:01.279Z,5.68
2023-04-22T18:39:47.409Z,5.78
2023-04-22T18:42:34.609Z,5.45
2023-04-22T18:45:22.769Z,6.32
2023-04-22T18:48:08.810Z,5.40
2023-04-22T18:50:54.974Z,5.05
2023-04-22T18:53:40.935Z,5.82
2023-04-22T18:56:27.062Z,5.80
2023-04-22T18:59:16.199Z,6.18
2023-04-22T19:05:21.837Z,4.55
2023-04-22T19:08:07.653Z,4.35
2023-04-22T19:10:53.853Z,5.38
2023-04-22T19:13:39.918Z,5.13
2023-04-22T19:19:31.253Z,4.38
2023-04-22T19:28:19.806Z,4.72
2023-04-22T19:31:06.135Z,3.80
2023-04-22T19:33:52.026Z,4.38
2023-04-22T19:36:39.406Z,3.30
2023-04-22T19:39:25.301Z,3.92
2023-04-22T19:42:11.613Z,3.42
2023-04-22T19:48:16.937Z,4.07
2023-04-22T19:51:03.518Z,3.65
2023-04-22T19:53:51.414Z,3.33
2023-04-22T19:56:37.856Z,3.55
2023-04-22T19:59:23.905Z,3.78
2023-04-22T20:02:10.497Z,4.00
2023-04-22T20:04:57.156Z,4.18
2023-04-22T20:07:44.209Z,3.60
2023-04-22T20:10:31.778Z,4.22
2023-04-22T20:13:18.383Z,4.45
2023-04-22T20:16:04.958Z,4.45
2023-04-22T20:18:52.102Z,3.80
2023-04-22T20:21:39.738Z,4.00
2023-04-22T20:24:27.676Z,3.90
2023-04-22T20:27:16.986Z,3.60
2023-04-22T20:30:03.388Z,3.35
2023-04-22T20:32:50.116Z,3.90
2023-04-22T20:35:36.543Z,4.00
2023-04-22T20:38:23.241Z,4.93
2023-04-22T20:41:10.094Z,4.20
2023-04-22T20:43:57.533Z,4.20
2023-04-22T20:46:43.518Z,4.57
2023-04-22T20:49:29.832Z,4.22
2023-04-22T20:52:16.284Z,4.30
2023-04-22T20:55:03.338Z,4.18
2023-04-22T20:57:49.233Z,4.40
2023-04-22T21:00:36.687Z,5.13
2023-04-22T21:03:23.384Z,4.75
2023-04-22T21:06:10.255Z,5.13
2023-04-22T21:08:56.451Z,5.07
2023-04-22T21:14:49.877Z,4.15
2023-04-22T21:20:53.836Z,4.63
2023-04-22T21:23:41.039Z,5.63
2023-04-22T21:29:48.503Z,4.38
2023-04-22T21:32:40.286Z,4.78
2023-04-22T21:35:26.211Z,5.28
2023-04-22T21:38:15.962Z,4.50
2023-04-22T21:41:02.149Z,4.53
2023-04-22T21:43:48.545Z,4.47
2023-04-22T21:49:51.276Z,4.90
2023-04-22T21:52:37.515Z,5.78
2023-04-22T21:55:25.035Z,4.65
2023-04-22T21:58:10.960Z,4.40
2023-04-22T22:04:02.712Z,3.83
2023-04-22T22:10:01.930Z,4.85
2023-04-22T22:12:50.017Z,5.15
2023-04-22T22:15:36.233Z,6.25
2023-04-22T22:18:22.150Z,5.85
2023-04-22T22:21:08.358Z,6.60
2023-04-22T22:23:54.639Z,5.93
2023-04-22T22:26:42.663Z,6.55
2023-04-22T22:29:29.970Z,7.10
2023-04-22T22:32:16.133Z,7.65
2023-04-22T22:35:02.288Z,6.75
2023-04-22T22:37:48.451Z,5.82
2023-04-22T22:40:34.328Z,6.47
2023-04-22T22:43:20.726Z,6.15
2023-04-22T22:46:08.026Z,7.10
2023-04-22T22:48:54.457Z,7.18
2023-04-22T22:51:40.867Z,6.10
2023-04-22T22:54:26.994Z,5.30
2023-04-22T23:00:48.595Z,6.20
2023-04-22T23:06:48.928Z,6.28
2023-04-22T23:09:35.306Z,6.82
2023-04-22T23:12:25.074Z,7.75
2023-04-22T23:15:12.286Z,9.07
2023-04-22T23:17:58.670Z,10.40
2023-04-22T23:20:45.079Z,12.68
2023-04-22T23:23:32.600Z,12.85
2023-04-22T23:26:19.407Z,12.35
2023-04-22T23:29:09.366Z,15.68
2023-04-22T23:31:56.576Z,15.75
2023-04-22T23:34:46.224Z,14.57
2023-04-22T23:37:35.896Z,18.10
2023-04-22T23:40:23.282Z,16.08
2023-04-22T23:46:18.904Z,17.95
2023-04-22T23:49:05.032Z,19.55
2023-04-22T23:51:51.432Z,20.55
2023-04-22T23:54:38.147Z,19.52
2023-04-22T23:57:36.936Z,21.63
